Hauptseite
METAR-TAF:

METAR-TAF

Flughäfen :

Maastricht Aachen Airport

Maastricht Aachen, Niederlande

Breite: 50-55N, Länge: 005-47E, Höhe: 114 m

Beobachtung

Neuester Wetterbericht von vor 22 Minuten, um 20:55 UTC
Wind 2 kt aus unterschiedlichen Richtungen
Temperatur 5°C
Luftfeuchtigkeit 56%
Luftdruck 1021 hPa
Sichtweite 10 km oder mehr

METAR: EHBK 032055Z AUTO VRB02KT 9999 NCD 05/M03 Q1021 NOSIG

Zeit: 23:17 (21:17 UTC)

Prognose

Neuester Wetterbericht von vor 4 Stunden und 23 Minuten, um 16:54 UTC
Gültige Prognose vom 03 um 18 UTC bis 04 um 24 UTC
Wind 6 kt aus West/Nordwest
Sichtweite 10 km oder mehr
keine Wolken unter 1500 m und keine Kumulonimbus oder Gewitterwolken

TAF: EHBK 031654Z 0318/0424 30006KT CAVOK

Wetterbeobachtungen und Prognosen von mehr als 4000 Flughäfen (METAR und TAF Bericht).

Die verfügbaren Stationen werden durch gelbe und rote Markierungen auf der Karte dargestellt.

Führen Sie die Maus auf sie, um den Namen der Station zu sehen.

Darauf klicken, um die Beobachtung von Wetterbeobachtungen und Prognosen zu sehen.

Um die Karte zu ändern : klicken Sie auf den grünen Tasten mit einem schwarzen Kreuz Zum Vergrößern, auf den grünen Button mit einem Gedankenstrich zu verkleinern, oder auf die grünen Pfeile für benachbarte Karten.


METAR-TAF: